createdAt,value
2017-10-10T00:00:25.829Z,37.53
2017-10-10T00:02:53.109Z,37.40
2017-10-10T00:05:20.408Z,37.53
2017-10-10T00:07:49.434Z,37.46
2017-10-10T00:10:16.724Z,37.54
2017-10-10T00:12:43.918Z,37.56
2017-10-10T00:15:11.140Z,37.61
2017-10-10T00:17:38.388Z,37.58
2017-10-10T00:20:05.737Z,37.60
2017-10-10T00:22:32.890Z,37.46
2017-10-10T00:25:00.144Z,37.60
2017-10-10T00:27:27.371Z,37.58
2017-10-10T00:29:54.708Z,37.63
2017-10-10T00:32:21.904Z,37.60
2017-10-10T00:34:49.098Z,37.72
2017-10-10T00:37:16.383Z,37.64
2017-10-10T00:39:43.806Z,37.66
2017-10-10T00:42:11.041Z,37.73
2017-10-10T00:44:38.238Z,37.70
2017-10-10T00:47:05.434Z,37.74
2017-10-10T00:49:32.656Z,37.77
2017-10-10T00:52:00.111Z,37.76
2017-10-10T00:54:27.397Z,37.79
2017-10-10T00:56:54.845Z,37.68
2017-10-10T00:59:22.126Z,37.72
2017-10-10T01:01:49.378Z,37.77
2017-10-10T01:04:16.639Z,37.61
2017-10-10T01:06:43.943Z,37.61
2017-10-10T01:09:11.169Z,37.61
2017-10-10T01:11:38.390Z,37.62
2017-10-10T01:14:05.766Z,37.63
2017-10-10T01:16:33.029Z,37.67
2017-10-10T01:19:00.282Z,37.75
2017-10-10T01:21:27.546Z,37.74
2017-10-10T01:23:54.994Z,37.67
2017-10-10T01:26:22.196Z,37.79
2017-10-10T01:28:49.437Z,37.85
2017-10-10T01:31:16.660Z,37.83
2017-10-10T01:33:44.186Z,37.81
2017-10-10T01:36:11.706Z,37.86
2017-10-10T01:38:38.945Z,37.85
2017-10-10T01:41:06.221Z,37.88
2017-10-10T01:43:33.459Z,37.83
2017-10-10T01:46:01.162Z,37.82
2017-10-10T01:48:28.342Z,37.85
2017-10-10T01:50:55.602Z,37.89
2017-10-10T01:53:22.753Z,37.80
2017-10-10T01:55:49.982Z,37.89
2017-10-10T01:58:17.263Z,37.89
2017-10-10T02:00:44.602Z,37.77
2017-10-10T02:03:11.913Z,37.87
2017-10-10T02:05:39.190Z,37.82
2017-10-10T02:08:06.520Z,37.81
2017-10-10T02:10:33.808Z,37.75
2017-10-10T02:13:01.082Z,37.76
2017-10-10T02:15:28.323Z,37.67
2017-10-10T02:17:55.565Z,37.78
2017-10-10T02:20:22.757Z,37.70
2017-10-10T02:22:49.987Z,37.68
2017-10-10T02:25:17.628Z,37.76
2017-10-10T02:27:44.818Z,37.71
2017-10-10T02:30:12.150Z,37.70
2017-10-10T02:32:39.510Z,37.68
2017-10-10T02:35:06.814Z,37.64
2017-10-10T02:37:34.132Z,37.66
2017-10-10T02:40:01.338Z,37.67
2017-10-10T02:42:28.497Z,37.62
2017-10-10T02:44:55.788Z,37.57
2017-10-10T02:47:23.034Z,37.57
2017-10-10T02:49:50.338Z,37.61
2017-10-10T02:52:17.515Z,37.60
2017-10-10T02:54:44.835Z,37.60
2017-10-10T02:57:11.998Z,37.56
2017-10-10T02:59:39.164Z,37.68
2017-10-10T03:02:06.401Z,37.66
2017-10-10T03:04:33.644Z,37.61
2017-10-10T03:07:00.843Z,37.68
2017-10-10T03:09:28.059Z,37.74
2017-10-10T03:11:55.304Z,37.68
2017-10-10T03:14:22.479Z,37.71
2017-10-10T03:16:49.709Z,37.56
2017-10-10T03:19:17.446Z,37.59
2017-10-10T03:21:44.711Z,37.46
2017-10-10T03:24:11.989Z,37.56
2017-10-10T03:26:39.204Z,37.52
2017-10-10T03:29:06.423Z,37.41
2017-10-10T03:31:33.716Z,37.41
2017-10-10T03:34:01.135Z,37.41
2017-10-10T03:36:28.339Z,37.41
2017-10-10T03:38:55.593Z,37.32
2017-10-10T03:41:23.004Z,37.28
2017-10-10T03:43:50.199Z,37.20
2017-10-10T03:46:17.664Z,37.27
2017-10-10T03:48:44.883Z,37.23
2017-10-10T03:51:12.053Z,37.14
2017-10-10T03:53:39.309Z,37.25
2017-10-10T03:56:06.542Z,37.06
2017-10-10T03:58:33.784Z,37.08
2017-10-10T04:01:01.203Z,36.90
2017-10-10T04:03:28.369Z,36.96
2017-10-10T04:05:55.594Z,36.75
2017-10-10T04:08:22.831Z,36.75
2017-10-10T04:10:50.038Z,36.72
2017-10-10T04:13:17.306Z,36.68
2017-10-10T04:15:44.518Z,36.58
2017-10-10T04:18:11.686Z,36.42
2017-10-10T04:20:38.942Z,36.43
2017-10-10T04:23:06.122Z,36.28
2017-10-10T04:25:33.421Z,36.31
2017-10-10T04:28:00.780Z,36.02
2017-10-10T04:30:28.053Z,36.12
2017-10-10T04:32:55.363Z,36.08
2017-10-10T04:35:22.842Z,36.07
2017-10-10T04:37:50.080Z,35.98
2017-10-10T04:40:17.267Z,36.00
2017-10-10T04:42:44.556Z,35.97
2017-10-10T04:45:11.890Z,35.85
2017-10-10T04:47:39.193Z,35.76
2017-10-10T04:50:06.399Z,35.81
2017-10-10T04:52:33.788Z,35.59
2017-10-10T04:55:01.534Z,35.65
2017-10-10T04:57:28.803Z,35.56
2017-10-10T04:59:56.694Z,35.61
2017-10-10T05:02:23.941Z,35.47
2017-10-10T05:04:51.190Z,35.42
2017-10-10T05:07:18.443Z,35.46
2017-10-10T05:09:45.972Z,35.72
2017-10-10T05:12:13.244Z,35.41
2017-10-10T05:14:40.531Z,35.28
2017-10-10T05:17:07.727Z,35.30
2017-10-10T05:19:35.002Z,35.20
2017-10-10T05:22:02.259Z,35.44
2017-10-10T05:24:29.770Z,35.01
2017-10-10T05:26:57.008Z,35.27
2017-10-10T05:29:24.487Z,34.96
2017-10-10T05:31:51.704Z,34.80
2017-10-10T05:34:19.020Z,34.65
2017-10-10T05:36:46.208Z,34.54
2017-10-10T05:39:13.592Z,34.37
2017-10-10T05:41:42.328Z,34.45
2017-10-10T05:44:09.571Z,34.20
2017-10-10T05:46:36.895Z,34.26
2017-10-10T05:49:04.132Z,34.20
2017-10-10T05:51:32.202Z,34.13
2017-10-10T05:53:59.608Z,34.18
2017-10-10T05:56:26.907Z,34.19
2017-10-10T05:58:54.382Z,34.14
2017-10-10T06:01:23.933Z,34.13
2017-10-10T06:06:24.271Z,33.97
2017-10-10T06:16:31.592Z,34.00
2017-10-10T06:24:05.427Z,34.09
2017-10-10T06:41:46.122Z,34.05
2017-10-10T06:51:48.152Z,34.14
2017-10-10T06:56:47.404Z,34.01
2017-10-10T07:04:31.776Z,33.92
2017-10-10T07:07:00.185Z,33.91
2017-10-10T07:09:29.733Z,34.00
2017-10-10T07:32:24.473Z,33.87
2017-10-10T07:39:56.118Z,33.92
2017-10-10T07:42:23.392Z,33.84
2017-10-10T07:44:54.619Z,33.93
2017-10-10T07:55:09.467Z,33.97
2017-10-10T07:57:36.744Z,33.89
2017-10-10T08:00:05.913Z,34.04
2017-10-10T08:02:36.105Z,34.19
2017-10-10T08:05:04.742Z,34.17
2017-10-10T08:07:32.358Z,34.20
2017-10-10T08:09:59.993Z,34.10
2017-10-10T08:12:29.813Z,34.05
2017-10-10T08:14:58.062Z,34.08
2017-10-10T08:17:25.922Z,34.15
2017-10-10T08:19:53.289Z,34.21
2017-10-10T08:22:20.627Z,34.14
2017-10-10T08:24:49.343Z,34.27
2017-10-10T08:27:16.637Z,34.21
2017-10-10T08:29:44.022Z,34.19
2017-10-10T08:34:44.424Z,34.20
2017-10-10T08:37:12.189Z,34.35
2017-10-10T08:47:16.932Z,34.22
2017-10-10T08:49:45.603Z,34.24
2017-10-10T08:52:12.865Z,34.17
2017-10-10T08:54:40.094Z,34.21
2017-10-10T08:57:07.638Z,34.45
2017-10-10T08:59:35.439Z,34.36
2017-10-10T09:02:03.008Z,34.47
2017-10-10T09:04:30.210Z,34.58
2017-10-10T09:06:57.535Z,34.39
2017-10-10T09:09:28.355Z,34.41
2017-10-10T09:11:56.992Z,34.18
2017-10-10T09:14:24.364Z,34.31
2017-10-10T09:19:24.838Z,34.29
2017-10-10T09:21:52.503Z,34.35
2017-10-10T09:24:23.597Z,34.21
2017-10-10T09:26:50.832Z,34.13
2017-10-10T09:29:19.676Z,34.03
2017-10-10T09:31:47.367Z,34.11
2017-10-10T09:44:36.419Z,34.16
2017-10-10T09:47:04.653Z,34.03
2017-10-10T09:49:31.936Z,34.06
2017-10-10T09:52:02.404Z,33.87
2017-10-10T09:57:04.946Z,33.99
2017-10-10T09:59:34.725Z,34.03
2017-10-10T10:02:03.107Z,33.99
2017-10-10T10:04:32.447Z,33.93
2017-10-10T10:09:34.819Z,34.02
2017-10-10T10:12:05.750Z,34.05
2017-10-10T10:22:20.576Z,34.03
2017-10-10T10:35:08.091Z,34.02
2017-10-10T11:16:01.824Z,33.92
2017-10-10T11:21:03.402Z,33.69
2017-10-10T11:46:43.670Z,33.39
2017-10-10T11:49:13.648Z,33.38
2017-10-10T11:59:29.193Z,33.20
2017-10-10T12:07:06.993Z,33.38
2017-10-10T12:12:09.198Z,33.03
2017-10-10T12:32:30.992Z,33.02
2017-10-10T13:00:34.047Z,33.05
2017-10-10T13:05:34.123Z,33.02
2017-10-10T13:20:44.454Z,32.37
2017-10-10T13:23:11.955Z,32.92
2017-10-10T13:46:11.195Z,32.25
2017-10-10T13:51:42.898Z,31.87
2017-10-10T13:54:14.358Z,32.11
2017-10-10T13:56:41.800Z,32.04
2017-10-10T13:59:11.436Z,32.10
2017-10-10T14:12:00.065Z,31.85
2017-10-10T14:27:07.596Z,31.52
2017-10-10T14:32:09.378Z,31.16
2017-10-10T14:34:36.617Z,31.14
2017-10-10T14:37:04.903Z,31.07
2017-10-10T14:44:40.221Z,30.75
2017-10-10T14:47:10.029Z,30.81
2017-10-10T14:49:37.515Z,30.85
2017-10-10T14:52:04.751Z,30.48
2017-10-10T14:54:31.942Z,30.24
2017-10-10T14:56:59.138Z,30.17
2017-10-10T14:59:26.451Z,30.16
2017-10-10T15:01:53.628Z,30.41
2017-10-10T15:04:20.882Z,30.40
2017-10-10T15:06:48.088Z,30.18
2017-10-10T15:09:16.379Z,30.35
2017-10-10T15:11:43.879Z,30.40
2017-10-10T15:14:13.291Z,30.53
2017-10-10T15:16:40.652Z,30.67
2017-10-10T15:19:07.892Z,30.67
2017-10-10T15:21:35.123Z,30.83
2017-10-10T15:24:02.314Z,30.75
2017-10-10T15:26:29.618Z,30.82
2017-10-10T15:28:56.847Z,31.00
2017-10-10T15:31:24.854Z,30.90
2017-10-10T15:36:24.557Z,31.06
2017-10-10T15:38:51.825Z,31.00
2017-10-10T15:46:25.807Z,31.43
2017-10-10T15:48:53.751Z,31.41
2017-10-10T15:51:20.956Z,31.53
2017-10-10T15:53:48.240Z,31.61
2017-10-10T15:56:15.429Z,31.48
2017-10-10T15:58:42.716Z,31.71
2017-10-10T16:01:10.520Z,31.67
2017-10-10T16:03:37.740Z,31.63
2017-10-10T16:06:04.999Z,31.69
2017-10-10T16:08:32.206Z,31.69
2017-10-10T16:10:59.482Z,31.72
2017-10-10T16:13:26.729Z,31.84
2017-10-10T16:15:53.987Z,31.87
2017-10-10T16:18:21.285Z,31.91
2017-10-10T16:21:05.641Z,31.98
2017-10-10T16:23:32.963Z,31.97
2017-10-10T16:26:00.178Z,31.96
2017-10-10T16:28:27.459Z,32.00
2017-10-10T16:30:54.686Z,32.08
2017-10-10T16:33:21.983Z,32.18
2017-10-10T16:35:49.188Z,32.26
2017-10-10T16:38:17.226Z,32.27
2017-10-10T16:40:44.417Z,32.23
2017-10-10T16:43:18.381Z,32.27
2017-10-10T16:46:02.393Z,32.32
2017-10-10T16:51:22.794Z,32.29
2017-10-10T16:53:50.810Z,32.32
2017-10-10T16:56:18.176Z,32.33
2017-10-10T16:58:45.524Z,32.30
2017-10-10T17:01:12.699Z,32.31
2017-10-10T17:03:39.874Z,32.23
2017-10-10T17:06:07.104Z,32.36
2017-10-10T17:08:34.301Z,32.55
2017-10-10T17:11:01.507Z,32.48
2017-10-10T17:13:28.745Z,32.37
2017-10-10T17:16:16.795Z,32.33
2017-10-10T17:18:44.047Z,32.52
2017-10-10T17:21:11.289Z,32.61
2017-10-10T17:23:38.458Z,32.40
2017-10-10T17:26:05.719Z,32.33
2017-10-10T17:28:33.111Z,32.42
2017-10-10T17:31:00.267Z,32.33
2017-10-10T17:33:48.576Z,32.32
2017-10-10T17:36:15.843Z,32.34
2017-10-10T17:38:44.568Z,32.41
2017-10-10T17:41:11.800Z,32.37
2017-10-10T17:43:46.588Z,32.43
2017-10-10T17:46:13.806Z,32.30
2017-10-10T17:48:54.039Z,32.34
2017-10-10T17:51:21.294Z,32.29
2017-10-10T17:53:48.530Z,32.33
2017-10-10T17:56:15.726Z,32.31
2017-10-10T17:58:50.453Z,32.19
2017-10-10T18:01:17.707Z,32.24
2017-10-10T18:06:22.611Z,32.24
2017-10-10T18:08:50.040Z,32.20
2017-10-10T18:11:17.254Z,32.20
2017-10-10T18:13:44.494Z,32.27
2017-10-10T18:16:24.772Z,32.30
2017-10-10T18:18:52.021Z,32.17
2017-10-10T18:21:19.193Z,32.18
2017-10-10T18:23:46.377Z,32.22
2017-10-10T18:26:13.612Z,32.30
2017-10-10T18:28:41.188Z,32.52
2017-10-10T18:31:13.387Z,32.55
2017-10-10T18:33:40.606Z,32.79
2017-10-10T18:36:07.810Z,32.91
2017-10-10T18:38:34.985Z,32.87
2017-10-10T18:41:02.159Z,32.94
2017-10-10T18:43:29.409Z,32.95
2017-10-10T18:45:56.586Z,33.08
2017-10-10T18:48:23.758Z,32.97
2017-10-10T18:50:51.001Z,33.08
2017-10-10T18:53:18.201Z,33.06
2017-10-10T18:55:45.414Z,33.13
2017-10-10T18:58:12.627Z,33.15
2017-10-10T19:00:39.845Z,33.20
2017-10-10T19:03:07.082Z,33.26
2017-10-10T19:05:47.351Z,33.38
2017-10-10T19:08:14.603Z,33.36
2017-10-10T19:10:41.845Z,33.40
2017-10-10T19:13:09.257Z,33.46
2017-10-10T19:15:36.456Z,33.53
2017-10-10T19:18:03.651Z,33.54
2017-10-10T19:20:31.530Z,33.61
2017-10-10T19:23:06.185Z,33.69
2017-10-10T19:25:33.386Z,33.84
2017-10-10T19:28:07.590Z,33.88
2017-10-10T19:30:34.814Z,33.96
2017-10-10T19:33:01.981Z,34.00
2017-10-10T19:35:50.770Z,34.13
2017-10-10T19:38:31.695Z,34.15
2017-10-10T19:40:58.886Z,34.18
2017-10-10T19:43:26.083Z,34.30
2017-10-10T19:45:53.352Z,34.25
2017-10-10T19:48:20.590Z,34.35
2017-10-10T19:50:47.783Z,34.30
2017-10-10T19:53:14.993Z,34.37
2017-10-10T19:55:42.148Z,34.40
2017-10-10T19:58:09.470Z,34.44
2017-10-10T20:00:36.656Z,34.50
2017-10-10T20:03:03.954Z,34.55
2017-10-10T20:05:31.138Z,34.56
2017-10-10T20:07:58.358Z,34.54
2017-10-10T20:10:25.527Z,34.64
2017-10-10T20:12:52.780Z,34.61
2017-10-10T20:15:20.014Z,34.63
2017-10-10T20:17:47.213Z,34.72
2017-10-10T20:20:14.401Z,34.70
2017-10-10T20:22:44.253Z,34.70
2017-10-10T20:25:11.480Z,34.81
2017-10-10T20:27:38.676Z,34.78
2017-10-10T20:30:05.847Z,34.76
2017-10-10T20:32:33.055Z,34.92
2017-10-10T20:35:00.306Z,34.79
2017-10-10T20:37:27.498Z,34.90
2017-10-10T20:39:54.763Z,34.78
2017-10-10T20:42:21.937Z,34.90
2017-10-10T20:44:49.200Z,34.96
2017-10-10T20:47:16.575Z,34.88
2017-10-10T20:49:43.799Z,34.86
2017-10-10T20:52:11.050Z,34.97
2017-10-10T20:54:38.334Z,34.98
2017-10-10T20:57:05.601Z,35.09
2017-10-10T20:59:33.532Z,34.96
2017-10-10T21:02:00.735Z,35.08
2017-10-10T21:04:27.954Z,35.03
2017-10-10T21:06:56.206Z,35.06
2017-10-10T21:09:23.458Z,35.14
2017-10-10T21:11:50.635Z,35.17
2017-10-10T21:14:18.272Z,35.24
2017-10-10T21:16:45.494Z,35.27
2017-10-10T21:19:13.841Z,35.25
2017-10-10T21:21:41.121Z,35.20
2017-10-10T21:24:09.769Z,35.31
2017-10-10T21:26:37.042Z,35.36
2017-10-10T21:29:04.267Z,35.35
2017-10-10T21:31:31.418Z,35.42
2017-10-10T21:33:58.590Z,35.42
2017-10-10T21:36:25.909Z,35.43
2017-10-10T21:38:53.254Z,35.48
2017-10-10T21:41:20.423Z,35.45
2017-10-10T21:43:47.999Z,35.50
2017-10-10T21:46:15.172Z,35.57
2017-10-10T21:48:42.385Z,35.57
2017-10-10T21:51:09.587Z,35.54
2017-10-10T21:53:36.810Z,35.59
2017-10-10T21:56:04.038Z,35.60
2017-10-10T21:58:31.289Z,35.71
2017-10-10T22:00:58.510Z,35.68
2017-10-10T22:03:25.697Z,35.66
2017-10-10T22:05:53.133Z,35.68
2017-10-10T22:08:20.354Z,35.68
2017-10-10T22:10:47.582Z,35.77
2017-10-10T22:13:14.743Z,35.75
2017-10-10T22:15:41.900Z,35.73
2017-10-10T22:18:09.129Z,35.80
2017-10-10T22:20:36.355Z,35.74
2017-10-10T22:23:03.538Z,35.90
2017-10-10T22:25:30.699Z,35.80
2017-10-10T22:27:57.951Z,35.88
2017-10-10T22:30:35.402Z,35.97
2017-10-10T22:33:02.672Z,35.95
2017-10-10T22:35:29.899Z,35.92
2017-10-10T22:37:57.175Z,35.88
2017-10-10T22:40:24.431Z,35.86
2017-10-10T22:42:51.685Z,35.89
2017-10-10T22:45:18.992Z,35.92
2017-10-10T22:47:46.203Z,35.91
2017-10-10T22:50:13.518Z,35.88
2017-10-10T22:52:40.749Z,35.93
2017-10-10T22:55:08.001Z,35.92
2017-10-10T22:57:35.203Z,35.95
2017-10-10T23:00:10.309Z,35.97
2017-10-10T23:02:37.466Z,35.96
2017-10-10T23:05:04.685Z,36.03
2017-10-10T23:07:31.921Z,35.98
2017-10-10T23:10:07.449Z,35.95
2017-10-10T23:12:34.913Z,35.98
2017-10-10T23:15:02.153Z,35.97
2017-10-10T23:17:29.306Z,35.92
2017-10-10T23:19:56.492Z,36.01
2017-10-10T23:22:23.714Z,35.96
2017-10-10T23:24:50.968Z,35.99
2017-10-10T23:27:18.201Z,35.99
2017-10-10T23:29:45.542Z,36.00
2017-10-10T23:32:14.229Z,36.00
2017-10-10T23:34:41.481Z,36.11
2017-10-10T23:37:08.684Z,36.02
2017-10-10T23:39:50.569Z,36.07
2017-10-10T23:42:17.767Z,35.99
2017-10-10T23:44:45.030Z,36.07
2017-10-10T23:47:12.500Z,36.10
2017-10-10T23:52:13.075Z,36.08
2017-10-10T23:54:50.344Z,36.03
2017-10-10T23:57:30.349Z,36.09
2017-10-10T23:59:57.674Z,36.13
